Time;durP1;ratioP1;P1;durP2;ratioP2;P2;SDS_P1;SDS_P2;PMS_P1;PMS_P2;Temp;Humidity;BMP_temperature;BMP_pressure;BME280_temperature;BME280_humidity;BME280_pressure;Samples;Min_cycle;Max_cycle;Signal;HPM_P1;HPM_P2
2021/04/16 00:01:02;;;;;;;13.35;7.95;;;12.00;71.20;;;;;;5076483;28;20092;-81
2021/04/16 00:03:28;;;;;;;14.05;8.07;;;11.90;71.30;;;;;;5077061;28;20076;-81
2021/04/16 00:05:54;;;;;;;18.88;9.32;;;11.90;71.40;;;;;;5077032;28;20029;-81
2021/04/16 00:08:25;;;;;;;15.95;9.15;;;11.80;71.40;;;;;;5077445;28;20020;-81
2021/04/16 00:11:04;;;;;;;14.85;8.27;;;11.80;71.70;;;;;;5077387;28;20029;-81
2021/04/16 00:13:30;;;;;;;16.33;8.80;;;11.80;71.80;;;;;;5077567;28;20036;-80
2021/04/16 00:15:56;;;;;;;13.48;7.97;;;11.80;71.70;;;;;;5076280;28;20028;-81
2021/04/16 00:18:26;;;;;;;15.77;8.93;;;11.80;71.80;;;;;;5076156;28;20386;-82
2021/04/16 00:20:53;;;;;;;18.27;9.38;;;11.70;72.00;;;;;;5076954;28;20021;-82
2021/04/16 00:23:19;;;;;;;16.42;8.70;;;11.70;72.00;;;;;;5077077;28;20032;-81
2021/04/16 00:25:45;;;;;;;14.10;8.32;;;11.70;72.10;;;;;;5076813;28;20027;-81
2021/04/16 00:28:12;;;;;;;15.10;7.97;;;11.70;72.20;;;;;;5077091;28;20405;-82
2021/04/16 00:31:02;;;;;;;15.45;8.60;;;11.70;72.30;;;;;;5076432;28;20101;-80
2021/04/16 00:33:28;;;;;;;12.95;8.40;;;11.70;72.50;;;;;;5074588;28;20028;-82
2021/04/16 00:35:54;;;;;;;12.57;8.07;;;11.70;72.40;;;;;;5075946;28;20029;-82
2021/04/16 00:38:21;;;;;;;13.02;8.02;;;11.60;72.30;;;;;;5076671;28;20016;-82
2021/04/16 00:40:51;;;;;;;13.98;7.95;;;11.70;72.50;;;;;;5075877;28;20103;-82
2021/04/16 00:43:19;;;;;;;13.20;8.45;;;11.60;72.70;;;;;;5075697;28;20032;-82
2021/04/16 00:45:46;;;;;;;13.35;8.07;;;11.60;72.80;;;;;;5075915;28;20039;-82
2021/04/16 00:52:00;;;;;;;15.20;8.80;;;11.60;72.80;;;;;;5073605;28;20093;-81
2021/04/16 00:54:31;;;;;;;19.13;9.75;;;11.60;72.80;;;;;;5075752;28;20048;-82
2021/04/16 00:56:57;;;;;;;20.90;10.68;;;11.60;72.80;;;;;;5074457;28;20027;-82
2021/04/16 00:59:28;;;;;;;21.15;11.18;;;11.70;72.80;;;;;;5075215;28;20017;-82
2021/04/16 01:01:58;;;;;;;20.63;10.32;;;11.60;72.80;;;;;;5071877;28;20505;-80
2021/04/16 01:04:24;;;;;;;19.40;9.52;;;11.60;72.90;;;;;;5075503;28;20032;-82
2021/04/16 01:06:51;;;;;;;14.75;8.88;;;11.60;73.10;;;;;;5073772;28;20036;-82
2021/04/16 01:09:17;;;;;;;14.45;8.45;;;11.60;73.20;;;;;;5076776;28;20055;-82
2021/04/16 01:11:43;;;;;;;15.40;8.98;;;11.60;73.00;;;;;;5075835;28;20458;-82
2021/04/16 01:14:09;;;;;;;18.98;10.27;;;11.60;73.10;;;;;;5075418;28;20032;-81
2021/04/16 01:16:35;;;;;;;17.38;9.82;;;11.60;73.10;;;;;;5075739;28;20028;-82
2021/04/16 01:19:07;;;;;;;22.55;10.77;;;11.60;73.20;;;;;;5074901;28;20056;-82
2021/04/16 01:21:51;;;;;;;19.80;10.50;;;11.60;73.30;;;;;;5073740;28;20020;-83
2021/04/16 01:24:30;;;;;;;20.33;10.45;;;11.60;73.30;;;;;;5075897;28;20036;-82
2021/04/16 01:26:57;;;;;;;19.40;11.15;;;11.50;73.30;;;;;;5076380;28;20039;-82
2021/04/16 01:29:24;;;;;;;19.70;11.25;;;11.50;73.30;;;;;;5074002;28;20492;-82
2021/04/16 01:31:51;;;;;;;27.08;11.82;;;11.50;73.30;;;;;;5074963;28;20104;-81
2021/04/16 01:34:26;;;;;;;29.75;11.75;;;11.50;73.90;;;;;;5076033;28;20036;-82
2021/04/16 01:36:55;;;;;;;20.55;11.77;;;11.50;73.50;;;;;;5075023;28;20028;-81
2021/04/16 01:39:23;;;;;;;22.58;11.32;;;11.50;73.40;;;;;;5074542;28;20023;-82
2021/04/16 01:41:49;;;;;;;21.70;10.98;;;11.50;73.50;;;;;;5075179;28;20070;-81
2021/04/16 01:44:20;;;;;;;23.92;11.27;;;11.40;73.50;;;;;;5075618;28;20141;-81
2021/04/16 01:46:54;;;;;;;22.13;11.77;;;11.40;73.70;;;;;;5074365;28;20051;-81
2021/04/16 01:54:51;;;;;;;19.30;10.45;;;11.40;73.90;;;;;;5075540;28;20040;-82
2021/04/16 01:57:27;;;;;;;17.77;9.52;;;11.40;74.10;;;;;;5074419;28;20044;-82
2021/04/16 01:59:55;;;;;;;16.55;10.00;;;11.40;74.20;;;;;;5075758;28;20021;-82
2021/04/16 02:02:30;;;;;;;15.60;8.27;;;11.30;74.20;;;;;;5074494;28;20033;-81
2021/04/16 02:04:56;;;;;;;14.57;7.50;;;11.30;74.30;;;;;;5074465;28;20027;-82
2021/04/16 02:07:23;;;;;;;12.48;7.05;;;11.30;74.40;;;;;;5076639;28;20070;-82
2021/04/16 02:09:48;;;;;;;12.43;6.82;;;11.30;74.50;;;;;;5079498;28;20077;-81
2021/04/16 02:12:17;;;;;;;10.82;6.70;;;11.30;74.60;;;;;;5091369;28;20427;-82
2021/04/16 02:14:43;;;;;;;11.55;6.30;;;11.30;74.70;;;;;;5081549;28;20033;-82
2021/04/16 02:17:14;;;;;;;15.35;6.93;;;11.30;74.80;;;;;;5074299;28;20030;-82
2021/04/16 02:19:41;;;;;;;13.50;7.47;;;11.30;75.00;;;;;;5074467;28;20048;-82
2021/04/16 02:22:13;;;;;;;12.65;7.05;;;11.20;75.00;;;;;;5074405;28;20475;-81
2021/04/16 02:24:39;;;;;;;13.52;7.20;;;11.20;75.20;;;;;;5075554;28;20039;-81
2021/04/16 02:27:05;;;;;;;11.48;6.78;;;11.20;75.30;;;;;;5075076;28;20036;-82
2021/04/16 02:29:31;;;;;;;11.38;7.03;;;11.20;75.40;;;;;;5074922;28;20036;-81
2021/04/16 02:31:56;;;;;;;11.13;7.30;;;11.20;75.50;;;;;;5074375;28;20082;-82
2021/04/16 02:34:26;;;;;;;9.77;6.88;;;11.20;75.50;;;;;;5074303;28;20063;-81
2021/04/16 02:36:55;;;;;;;9.60;6.85;;;11.20;75.60;;;;;;5074381;28;20024;-82
2021/04/16 02:39:22;;;;;;;13.80;7.78;;;11.20;75.70;;;;;;5074046;28;20028;-81
2021/04/16 02:41:48;;;;;;;11.43;7.55;;;11.20;75.60;;;;;;5074849;28;20029;-81
2021/04/16 02:44:14;;;;;;;13.98;8.95;;;11.20;75.60;;;;;;5074171;28;20028;-82
2021/04/16 02:46:41;;;;;;;16.58;10.13;;;11.30;75.80;;;;;;5075031;28;20025;-82
2021/04/16 02:49:06;;;;;;;16.63;9.45;;;11.30;75.60;;;;;;5074843;28;20130;-81
2021/04/16 02:54:55;;;;;;;13.88;8.43;;;11.30;75.60;;;;;;5071975;28;20081;-81
2021/04/16 02:57:20;;;;;;;12.43;8.23;;;11.30;75.50;;;;;;5074706;28;20049;-81
2021/04/16 02:59:46;;;;;;;12.18;7.45;;;11.30;75.40;;;;;;5075275;28;20354;-80
2021/04/16 03:02:12;;;;;;;14.85;7.75;;;11.20;75.50;;;;;;5074646;28;20028;-82
2021/04/16 03:04:38;;;;;;;11.80;7.18;;;11.20;75.70;;;;;;5074915;28;20065;-82
2021/04/16 03:07:03;;;;;;;8.77;7.10;;;11.30;75.80;;;;;;5074178;28;20021;-82
2021/04/16 03:09:29;;;;;;;11.25;7.10;;;11.30;75.80;;;;;;5074635;28;20485;-82
2021/04/16 03:11:55;;;;;;;11.05;7.55;;;11.30;75.70;;;;;;5073594;28;20035;-82
2021/04/16 03:14:20;;;;;;;12.40;7.32;;;11.30;75.80;;;;;;5075018;28;20043;-82
2021/04/16 03:16:48;;;;;;;10.98;7.05;;;11.30;75.90;;;;;;5074461;28;20107;-82
2021/04/16 03:19:13;;;;;;;11.15;6.32;;;11.30;75.90;;;;;;5074762;28;20051;-82
2021/04/16 03:21:39;;;;;;;11.30;7.18;;;11.30;75.90;;;;;;5074213;28;20458;-82
2021/04/16 03:24:06;;;;;;;10.27;7.53;;;11.30;75.90;;;;;;5074073;28;20082;-82
2021/04/16 03:26:32;;;;;;;11.02;6.68;;;11.30;76.00;;;;;;5074178;28;20060;-82
2021/04/16 03:28:59;;;;;;;9.13;6.70;;;11.30;76.00;;;;;;5072938;28;20052;-81
2021/04/16 03:31:26;;;;;;;12.38;7.45;;;11.30;76.10;;;;;;5074196;28;20103;-82
2021/04/16 03:33:53;;;;;;;11.75;7.53;;;11.30;76.20;;;;;;5073793;28;20033;-81
2021/04/16 03:36:20;;;;;;;9.45;7.35;;;11.30;76.20;;;;;;5073895;28;20027;-82
2021/04/16 03:38:47;;;;;;;14.45;7.95;;;11.30;76.30;;;;;;5072213;28;20024;-81
2021/04/16 03:41:13;;;;;;;15.27;8.10;;;11.30;76.50;;;;;;5074217;28;20028;-81
2021/04/16 03:43:40;;;;;;;11.63;8.23;;;11.30;76.40;;;;;;5073651;28;20029;-82
2021/04/16 03:46:06;;;;;;;13.48;8.30;;;11.30;76.40;;;;;;5071933;28;20451;-82
2021/04/16 03:48:32;;;;;;;15.75;10.48;;;11.30;76.60;;;;;;5073617;28;20021;-82
2021/04/16 03:50:58;;;;;;;15.85;11.98;;;11.30;76.60;;;;;;5071586;28;20453;-83
2021/04/16 03:57:38;;;;;;;16.05;11.18;;;11.30;76.80;;;;;;5057297;28;20047;-81
2021/04/16 04:00:06;;;;;;;13.05;9.80;;;11.30;76.60;;;;;;5058082;28;20029;-82
2021/04/16 04:02:32;;;;;;;16.58;9.60;;;11.30;76.70;;;;;;5076220;28;20043;-82
2021/04/16 04:04:57;;;;;;;13.02;9.38;;;11.30;76.60;;;;;;5077179;28;20451;-81
2021/04/16 04:07:23;;;;;;;14.30;9.48;;;11.30;76.70;;;;;;5076196;28;20103;-83
2021/04/16 04:09:49;;;;;;;12.98;9.48;;;11.30;76.70;;;;;;5075196;28;20032;-79
2021/04/16 04:12:15;;;;;;;17.23;10.25;;;11.40;76.80;;;;;;5077435;28;20041;-82
2021/04/16 04:14:40;;;;;;;17.52;10.48;;;11.40;76.80;;;;;;5077240;28;20033;-82
2021/04/16 04:17:06;;;;;;;13.82;9.40;;;11.40;76.80;;;;;;5077501;28;20469;-82
2021/04/16 04:19:34;;;;;;;18.60;10.32;;;11.40;76.80;;;;;;5077667;28;20044;-82
2021/04/16 04:22:01;;;;;;;16.17;9.68;;;11.40;76.80;;;;;;5077427;28;20039;-81
2021/04/16 04:24:28;;;;;;;19.08;9.57;;;11.50;76.80;;;;;;5075851;28;20378;-80
2021/04/16 04:26:55;;;;;;;23.23;9.43;;;11.60;76.80;;;;;;5079001;28;20028;-82
2021/04/16 04:29:24;;;;;;;28.83;10.02;;;11.60;76.60;;;;;;5077365;28;20359;-81
2021/04/16 04:31:50;;;;;;;20.48;9.63;;;11.60;76.40;;;;;;5078407;28;20028;-83
2021/04/16 04:34:23;;;;;;;17.98;10.55;;;11.70;76.50;;;;;;5077123;28;20044;-82
2021/04/16 04:36:51;;;;;;;16.92;10.63;;;11.70;76.50;;;;;;5076561;28;20474;-82
2021/04/16 04:39:18;;;;;;;19.30;10.43;;;11.80;76.40;;;;;;5076188;28;20070;-83
2021/04/16 04:41:44;;;;;;;17.13;10.30;;;11.80;76.20;;;;;;5076769;28;20056;-82
2021/04/16 04:44:10;;;;;;;22.42;10.27;;;11.80;76.00;;;;;;5077326;28;20034;-81
2021/04/16 04:46:37;;;;;;;20.73;10.43;;;11.80;75.90;;;;;;5091337;28;20067;-83
2021/04/16 04:49:05;;;;;;;13.68;10.15;;;11.90;75.80;;;;;;5079295;28;20512;-82
2021/04/16 04:51:31;;;;;;;16.02;9.82;;;11.90;75.70;;;;;;5075121;28;20379;-81
2021/04/16 04:53:57;;;;;;;19.00;10.15;;;11.90;75.80;;;;;;5075349;28;20478;-82
2021/04/16 04:59:45;;;;;;;16.98;10.43;;;11.90;75.70;;;;;;5076069;28;20043;-82
2021/04/16 05:02:12;;;;;;;17.33;11.23;;;11.90;75.60;;;;;;5074237;28;20029;-84
2021/04/16 05:04:38;;;;;;;27.42;11.55;;;12.00;75.80;;;;;;5076056;28;20078;-83
2021/04/16 05:07:04;;;;;;;39.20;12.20;;;12.00;75.70;;;;;;5075463;28;20024;-81
2021/04/16 05:09:30;;;;;;;24.75;11.48;;;11.90;75.80;;;;;;5075284;28;20024;-82
2021/04/16 05:11:56;;;;;;;18.67;10.63;;;12.00;76.10;;;;;;5075196;28;20032;-84
2021/04/16 05:14:22;;;;;;;20.15;11.18;;;12.00;76.60;;;;;;5075511;28;20033;-85
2021/04/16 05:16:48;;;;;;;18.17;11.57;;;12.00;75.90;;;;;;5075803;28;20035;-85
2021/04/16 05:19:14;;;;;;;18.33;11.88;;;12.00;75.90;;;;;;5074936;28;20044;-84
2021/04/16 05:21:40;;;;;;;19.42;11.80;;;12.00;76.20;;;;;;5075174;28;20031;-85
2021/04/16 05:24:07;;;;;;;20.80;12.80;;;12.00;76.30;;;;;;5075108;28;20024;-85
2021/04/16 05:26:33;;;;;;;17.52;11.75;;;12.10;76.40;;;;;;5074304;28;20032;-86
2021/04/16 05:28:59;;;;;;;18.75;11.90;;;12.10;76.40;;;;;;5075545;28;20466;-85
2021/04/16 05:31:25;;;;;;;19.63;13.32;;;12.10;76.40;;;;;;5075150;28;20028;-85
2021/04/16 05:33:51;;;;;;;21.92;13.85;;;12.20;76.30;;;;;;5074531;28;20037;-85
2021/04/16 05:36:16;;;;;;;22.10;13.65;;;12.20;76.10;;;;;;5075040;28;20039;-83
2021/04/16 05:38:42;;;;;;;20.02;12.85;;;12.20;76.00;;;;;;5073986;28;20055;-83
2021/04/16 05:41:08;;;;;;;20.67;13.00;;;12.20;76.10;;;;;;5074664;28;20470;-86
2021/04/16 05:43:33;;;;;;;20.48;13.40;;;12.20;76.10;;;;;;5074477;28;20093;-84
2021/04/16 05:45:59;;;;;;;19.77;12.52;;;12.20;76.30;;;;;;5074005;28;20032;-85
2021/04/16 05:48:25;;;;;;;20.40;13.00;;;12.30;76.30;;;;;;5074713;28;20033;-87
2021/04/16 05:50:51;;;;;;;24.60;14.50;;;12.30;76.10;;;;;;5074186;28;20095;-84
2021/04/16 05:53:17;;;;;;;21.50;14.10;;;12.40;75.70;;;;;;5073929;28;20040;-84
2021/04/16 06:02:31;;;;;;;28.40;18.27;;;12.40;75.40;;;;;;5057948;28;20109;-86
2021/04/16 06:04:57;;;;;;;29.63;20.42;;;12.50;75.30;;;;;;5074176;28;20037;-84
2021/04/16 06:07:25;;;;;;;46.97;31.80;;;12.50;75.30;;;;;;5074366;28;20028;-85
2021/04/16 06:09:52;;;;;;;36.58;24.42;;;12.50;75.30;;;;;;5074084;28;20043;-86
2021/04/16 06:12:21;;;;;;;39.13;22.52;;;12.60;75.30;;;;;;5072814;28;20051;-85
2021/04/16 06:14:48;;;;;;;31.23;21.55;;;12.70;75.30;;;;;;5073981;28;20528;-84
2021/04/16 06:17:15;;;;;;;29.52;19.65;;;12.70;75.30;;;;;;5076661;28;20043;-85
2021/04/16 06:19:42;;;;;;;33.45;20.92;;;12.80;75.10;;;;;;5074132;28;20106;-86
2021/04/16 06:22:09;;;;;;;36.25;24.15;;;12.90;75.20;;;;;;5074305;28;20033;-86
2021/04/16 06:24:34;;;;;;;35.17;25.35;;;13.00;75.00;;;;;;5074016;28;20027;-84
2021/04/16 06:27:02;;;;;;;37.97;27.80;;;13.10;74.60;;;;;;5072533;28;20451;-85
2021/04/16 06:29:28;;;;;;;32.25;23.55;;;13.30;74.20;;;;;;5073636;28;20040;-86
2021/04/16 06:31:54;;;;;;;33.97;23.77;;;13.40;73.70;;;;;;5072452;28;20065;-84
2021/04/16 06:34:20;;;;;;;43.13;32.03;;;13.40;73.20;;;;;;5073905;28;20036;-86
2021/04/16 06:36:46;;;;;;;27.95;20.42;;;13.40;72.90;;;;;;5074028;28;20033;-85
2021/04/16 06:39:12;;;;;;;25.35;18.55;;;13.40;72.50;;;;;;5072652;28;20027;-85
2021/04/16 06:41:39;;;;;;;27.40;20.15;;;13.30;72.10;;;;;;5074209;28;20046;-86
2021/04/16 06:44:21;;;;;;;32.20;21.58;;;13.20;72.10;;;;;;5074193;28;20032;-85
2021/04/16 06:46:57;;;;;;;24.33;17.23;;;13.20;72.40;;;;;;5073677;28;20024;-85
2021/04/16 06:49:28;;;;;;;25.75;15.93;;;13.20;72.40;;;;;;5073896;28;20021;-86
2021/04/16 06:52:25;;;;;;;24.63;16.98;;;13.20;72.10;;;;;;5072911;28;20032;-85
2021/04/16 06:55:14;;;;;;;25.25;14.45;;;13.30;72.20;;;;;;5073440;28;20044;-85
2021/04/16 07:01:06;;;;;;;22.00;14.65;;;13.50;71.60;;;;;;5073413;28;20063;-85
2021/04/16 07:03:43;;;;;;;23.60;15.25;;;13.60;71.50;;;;;;5071562;28;20039;-86
2021/04/16 07:06:30;;;;;;;23.08;15.23;;;13.80;71.30;;;;;;5074194;28;20033;-84
2021/04/16 07:08:59;;;;;;;27.05;19.13;;;14.00;70.70;;;;;;5066846;28;20028;-85
2021/04/16 07:11:30;;;;;;;32.53;22.88;;;14.10;70.50;;;;;;5072489;28;20132;-86
2021/04/16 07:14:01;;;;;;;32.25;20.05;;;14.20;70.10;;;;;;5072486;28;20090;-85
2021/04/16 07:16:28;;;;;;;31.65;19.00;;;14.30;69.90;;;;;;5071704;28;20028;-85
2021/04/16 07:18:57;;;;;;;33.45;19.23;;;14.30;69.50;;;;;;5089622;28;20106;-83
2021/04/16 07:21:23;;;;;;;40.50;20.83;;;14.40;69.20;;;;;;5078688;28;20372;-85
2021/04/16 07:23:54;;;;;;;67.68;25.35;;;14.40;68.90;;;;;;5072339;28;20507;-84
2021/04/16 07:26:26;;;;;;;63.90;24.00;;;14.40;68.70;;;;;;5071541;28;20033;-85
2021/04/16 07:28:55;;;;;;;69.57;26.40;;;14.30;68.50;;;;;;5076688;28;20031;-88
2021/04/16 07:31:28;;;;;;;72.15;27.77;;;14.30;68.50;;;;;;5075452;28;20035;-85
2021/04/16 07:33:55;;;;;;;64.00;24.17;;;14.20;68.50;;;;;;5078121;28;20436;-85
2021/04/16 07:36:37;;;;;;;44.17;20.02;;;14.00;68.60;;;;;;5077184;28;20029;-84
2021/04/16 07:39:13;;;;;;;37.30;20.70;;;13.90;68.90;;;;;;5077696;28;20086;-85
2021/04/16 07:41:47;;;;;;;29.88;17.98;;;13.90;69.20;;;;;;5077252;28;20103;-85
2021/04/16 07:44:28;;;;;;;;;;;13.90;69.70;;;;;;5077421;28;20484;-85
2021/04/16 07:47:02;;;;;;;31.13;18.25;;;14.10;70.30;;;;;;5077084;28;19916;-85
2021/04/16 07:49:36;;;;;;;30.10;17.00;;;14.40;69.80;;;;;;5082314;28;20084;-86
2021/04/16 07:52:28;;;;;;;24.73;16.15;;;14.70;68.80;;;;;;5077986;28;20095;-85
2021/04/16 07:55:03;;;;;;;26.40;16.67;;;14.80;68.10;;;;;;5072839;28;20055;-85
2021/04/16 07:57:28;;;;;;;27.83;16.65;;;14.80;67.40;;;;;;5077084;28;20028;-86
2021/04/16 08:00:28;;;;;;;28.80;17.00;;;14.80;67.10;;;;;;5077326;28;20024;-87
2021/04/16 08:03:17;;;;;;;32.05;19.38;;;14.70;67.30;;;;;;5075839;28;20041;-85
2021/04/16 08:05:48;;;;;;;28.10;17.67;;;14.60;67.20;;;;;;5056603;28;20127;-85
2021/04/16 08:08:17;;;;;;;28.10;18.15;;;14.50;67.50;;;;;;5055594;28;20026;-87
2021/04/16 08:10:45;;;;;;;47.58;24.63;;;14.50;67.90;;;;;;5057024;28;20060;-85
2021/04/16 08:13:19;;;;;;;44.15;25.85;;;14.50;67.90;;;;;;5056739;28;20069;-86
2021/04/16 08:15:44;;;;;;;45.28;21.33;;;14.50;68.00;;;;;;5074714;28;20114;-85
2021/04/16 08:18:37;;;;;;;32.83;20.70;;;14.60;67.90;;;;;;5075652;28;20044;-86
2021/04/16 08:21:05;;;;;;;39.40;24.55;;;14.60;68.00;;;;;;5076379;28;20056;-86
2021/04/16 08:23:39;;;;;;;43.65;23.95;;;14.80;68.00;;;;;;5076736;28;20029;-84
2021/04/16 08:26:09;;;;;;;43.40;26.65;;;14.80;67.60;;;;;;5056803;28;20102;-84
2021/04/16 08:28:56;;;;;;;46.50;25.92;;;14.80;67.40;;;;;;5064709;28;20032;-86
2021/04/16 08:32:04;;;;;;;32.05;18.70;;;14.80;67.40;;;;;;5077242;28;20032;-85
2021/04/16 08:34:56;;;;;;;21.33;14.45;;;14.70;67.30;;;;;;5076416;28;20364;-86
2021/04/16 08:37:26;;;;;;;20.38;13.18;;;14.60;67.20;;;;;;5076548;28;20091;-85
2021/04/16 08:39:52;;;;;;;18.40;12.63;;;14.40;67.20;;;;;;5077395;28;20025;-86
2021/04/16 08:42:32;;;;;;;20.70;13.85;;;14.30;67.80;;;;;;5074858;28;20032;-87
2021/04/16 08:45:07;;;;;;;21.15;13.82;;;14.20;68.40;;;;;;5076261;28;20039;-85
2021/04/16 08:47:43;;;;;;;17.92;12.75;;;14.20;69.00;;;;;;5055393;28;20052;-84
2021/04/16 08:50:10;;;;;;;19.60;13.38;;;14.20;69.40;;;;;;5056676;28;20414;-85
2021/04/16 08:52:48;;;;;;;20.23;13.98;;;14.30;69.30;;;;;;5056849;28;20065;-85
2021/04/16 08:55:23;;;;;;;18.27;13.38;;;14.40;69.10;;;;;;5056767;28;20033;-84
2021/04/16 08:57:55;;;;;;;18.13;12.98;;;14.40;69.10;;;;;;5056254;28;20029;-85
2021/04/16 09:00:29;;;;;;;19.40;13.93;;;14.40;69.00;;;;;;5056087;28;20040;-86
2021/04/16 09:02:57;;;;;;;16.83;13.02;;;14.40;69.10;;;;;;5067004;28;20028;-87
2021/04/16 09:05:25;;;;;;;20.13;13.13;;;14.40;69.20;;;;;;5076380;28;20039;-86
2021/04/16 09:08:19;;;;;;;17.00;12.60;;;14.40;69.10;;;;;;5076582;28;20029;-86
2021/04/16 09:10:54;;;;;;;17.23;11.77;;;14.40;69.10;;;;;;5076808;28;20466;-85
2021/04/16 09:13:38;;;;;;;;;;;14.50;69.10;;;;;;5076779;28;20037;-85
2021/04/16 09:16:15;;;;;;;13.45;9.95;;;14.60;69.30;;;;;;5076049;28;19911;-86
2021/04/16 09:18:50;;;;;;;13.82;9.10;;;14.70;69.20;;;;;;5075832;28;20044;-86
2021/04/16 09:21:29;;;;;;;13.25;9.60;;;14.80;68.90;;;;;;5073022;28;20052;-86
2021/04/16 09:24:04;;;;;;;12.70;9.25;;;15.00;68.50;;;;;;5075144;28;20115;-85
2021/04/16 09:26:47;;;;;;;14.90;8.77;;;15.10;68.10;;;;;;5074776;28;20478;-85
2021/04/16 09:29:25;;;;;;;13.38;9.05;;;15.20;68.10;;;;;;5074875;28;20028;-85
2021/04/16 09:31:57;;;;;;;10.77;8.57;;;15.30;68.20;;;;;;5073904;28;20032;-85
2021/04/16 09:34:28;;;;;;;9.75;7.70;;;15.40;68.10;;;;;;5073404;28;20090;-86
2021/04/16 09:37:15;;;;;;;10.43;7.60;;;15.50;67.80;;;;;;5075231;28;20027;-84
2021/04/16 09:39:57;;;;;;;10.43;7.38;;;15.60;67.00;;;;;;5075696;28;20111;-86
2021/04/16 09:42:49;;;;;;;10.05;6.43;;;15.50;66.60;;;;;;5073064;28;20040;-84
2021/04/16 09:45:30;;;;;;;9.90;6.43;;;15.30;65.90;;;;;;5059330;28;20512;-85
2021/04/16 09:48:00;;;;;;;8.73;6.47;;;15.10;65.80;;;;;;5078814;28;20032;-83
2021/04/16 09:50:36;;;;;;;6.28;4.18;;;14.70;65.10;;;;;;5084351;28;20029;-86
2021/04/16 09:53:16;;;;;;;6.43;3.60;;;14.30;64.20;;;;;;5076647;28;20059;-85
2021/04/16 09:55:55;;;;;;;5.93;4.40;;;13.80;64.50;;;;;;5071831;28;20066;-87
2021/04/16 09:58:30;;;;;;;5.88;3.88;;;13.40;65.50;;;;;;5071427;28;20103;-85
2021/04/16 10:00:55;;;;;;;7.00;4.03;;;13.20;66.40;;;;;;5073460;28;20036;-86
2021/04/16 10:03:25;;;;;;;6.70;3.70;;;13.10;67.20;;;;;;5077745;28;20037;-84
2021/04/16 10:05:53;;;;;;;9.07;4.05;;;12.90;68.00;;;;;;5078107;28;20025;-86
2021/04/16 10:08:29;;;;;;;7.85;3.75;;;12.90;68.40;;;;;;5077046;28;20059;-84
2021/04/16 10:11:04;;;;;;;8.60;4.70;;;12.80;68.80;;;;;;5076988;28;20021;-85
2021/04/16 10:13:35;;;;;;;7.70;4.95;;;12.80;69.10;;;;;;5077440;28;20067;-86
2021/04/16 10:16:01;;;;;;;8.70;5.18;;;12.70;69.40;;;;;;5073338;28;20032;-86
2021/04/16 10:18:37;;;;;;;11.95;5.30;;;12.70;70.40;;;;;;5076101;28;20049;-85
2021/04/16 10:21:19;;;;;;;7.68;4.70;;;12.90;71.60;;;;;;5075322;28;20066;-86
2021/04/16 10:23:52;;;;;;;11.25;5.55;;;13.20;72.20;;;;;;5075231;28;20089;-85
2021/04/16 12:38:23;;;;;;;5.57;3.08;;;11.50;83.20;;;;;;5079860;28;20039;-85
2021/04/16 12:40:49;;;;;;;1.95;1.67;;;11.30;83.00;;;;;;5076361;28;20020;-85
2021/04/16 12:43:15;;;;;;;5.10;3.95;;;11.10;82.90;;;;;;5079050;28;21017;-86
2021/04/16 12:45:40;;;;;;;2.80;2.50;;;10.90;83.40;;;;;;5079077;28;20450;-86
2021/04/16 12:48:06;;;;;;;3.03;2.67;;;10.80;84.00;;;;;;5080851;28;20024;-86
2021/04/16 12:50:33;;;;;;;3.20;2.90;;;10.60;83.70;;;;;;5074275;28;20150;-87
2021/04/16 12:52:59;;;;;;;3.53;2.55;;;10.50;84.70;;;;;;5067930;28;20040;-86
2021/04/16 12:55:25;;;;;;;3.40;2.78;;;10.40;85.00;;;;;;5071005;28;20032;-85
2021/04/16 12:57:55;;;;;;;4.70;3.20;;;10.30;85.30;;;;;;5070808;28;20109;-86
2021/04/16 13:00:24;;;;;;;4.88;3.97;;;10.20;85.30;;;;;;5068013;28;20036;-84
2021/04/16 13:03:00;;;;;;;3.65;2.85;;;10.20;86.70;;;;;;5070730;28;20025;-85
2021/04/16 13:05:26;;;;;;;3.60;2.47;;;10.20;87.20;;;;;;5065780;28;20104;-86
2021/04/16 13:07:52;;;;;;;3.47;2.70;;;10.30;87.90;;;;;;5078691;28;20032;-86
2021/04/16 13:10:18;;;;;;;2.78;2.45;;;10.40;87.40;;;;;;5079570;28;20032;-85
2021/04/16 13:12:44;;;;;;;2.60;2.40;;;10.50;86.90;;;;;;5081936;28;20040;-84
2021/04/16 13:15:11;;;;;;;3.60;2.47;;;10.60;86.50;;;;;;5083462;28;20048;-84
2021/04/16 13:17:43;;;;;;;2.70;2.25;;;10.50;85.50;;;;;;5077759;28;20056;-83
2021/04/16 13:20:14;;;;;;;4.53;2.45;;;10.50;85.60;;;;;;5088558;28;20044;-84
2021/04/16 13:22:40;;;;;;;4.28;2.60;;;10.50;85.80;;;;;;5093504;28;20029;-83
2021/04/16 13:25:06;;;;;;;3.97;2.95;;;10.60;86.80;;;;;;5092479;28;20051;-85
2021/04/16 13:27:32;;;;;;;3.40;2.53;;;10.70;86.60;;;;;;5092384;28;20056;-83
2021/04/16 13:29:58;;;;;;;4.13;2.63;;;10.70;85.80;;;;;;5093845;28;20024;-84
2021/04/16 13:32:29;;;;;;;2.22;2.03;;;10.60;84.60;;;;;;5092354;28;20028;-82
2021/04/16 13:34:57;;;;;;;3.45;2.67;;;10.50;84.60;;;;;;5090415;28;20120;-85
2021/04/16 13:37:29;;;;;;;2.83;2.55;;;10.50;84.10;;;;;;5093584;28;20059;-84
2021/04/16 13:39:55;;;;;;;3.88;2.65;;;10.30;84.50;;;;;;5091805;28;20024;-83
2021/04/16 13:42:21;;;;;;;3.58;2.67;;;10.30;85.00;;;;;;5090930;28;20024;-85
2021/04/16 13:44:47;;;;;;;3.95;2.67;;;10.30;85.40;;;;;;5088348;28;20066;-86
2021/04/16 13:47:18;;;;;;;3.97;3.10;;;10.30;85.90;;;;;;5089562;28;20028;-83
2021/04/16 13:49:44;;;;;;;2.65;1.90;;;10.30;86.40;;;;;;5092667;28;20044;-85
2021/04/16 13:52:11;;;;;;;3.08;1.90;;;10.30;85.80;;;;;;5084982;28;20029;-87
2021/04/16 13:54:37;;;;;;;2.80;2.30;;;10.40;85.70;;;;;;5073906;28;20037;-86
2021/04/16 13:57:05;;;;;;;6.60;2.10;;;10.40;85.40;;;;;;5085220;28;20017;-85
2021/04/16 13:59:31;;;;;;;2.17;1.92;;;10.40;85.50;;;;;;5089160;28;20427;-84
2021/04/16 14:01:58;;;;;;;2.40;2.20;;;10.40;85.20;;;;;;5079592;28;20025;-85
2021/04/16 14:04:26;;;;;;;4.18;2.42;;;10.30;84.80;;;;;;5074313;28;20058;-84
2021/04/16 14:06:57;;;;;;;6.13;2.85;;;10.30;84.80;;;;;;5073330;28;20378;-85
2021/04/16 14:09:25;;;;;;;3.08;2.45;;;10.30;84.90;;;;;;5074579;28;20063;-85
2021/04/16 14:11:53;;;;;;;3.33;2.47;;;10.20;84.70;;;;;;5074036;28;20471;-87
2021/04/16 14:14:26;;;;;;;5.53;2.55;;;10.20;85.20;;;;;;5074869;28;20032;-87
2021/04/16 14:17:07;;;;;;;3.65;2.10;;;10.20;85.90;;;;;;5075182;28;20518;-84
2021/04/16 14:20:00;;;;;;;3.45;2.22;;;10.10;85.50;;;;;;5074310;28;20048;-86
2021/04/16 14:22:39;;;;;;;3.33;2.60;;;10.00;84.30;;;;;;5067396;28;20119;-85
2021/04/16 14:25:14;;;;;;;3.42;1.90;;;9.90;84.40;;;;;;5074993;28;20046;-85
2021/04/16 14:27:41;;;;;;;2.17;1.70;;;9.80;84.50;;;;;;5055106;28;20017;-87
2021/04/16 14:30:35;;;;;;;2.22;2.00;;;9.70;84.90;;;;;;5061360;28;20035;-86
2021/04/16 14:33:04;;;;;;;3.25;2.08;;;9.60;85.30;;;;;;5071092;28;20049;-87
2021/04/16 14:35:32;;;;;;;2.53;1.90;;;9.50;85.20;;;;;;5074631;28;20016;-86
2021/04/16 14:37:59;;;;;;;3.75;2.50;;;9.50;85.20;;;;;;5074268;28;20024;-85
2021/04/16 14:40:25;;;;;;;3.58;2.63;;;9.40;85.00;;;;;;5073948;28;20028;-84
2021/04/16 14:42:52;;;;;;;2.78;2.00;;;9.30;85.50;;;;;;5075227;28;20066;-85
2021/04/16 14:45:22;;;;;;;2.10;1.85;;;9.20;85.50;;;;;;5072913;28;20025;-86
2021/04/16 14:47:48;;;;;;;2.70;2.08;;;9.10;85.30;;;;;;5073031;28;20028;-85
2021/04/16 14:50:16;;;;;;;2.35;2.00;;;9.10;85.50;;;;;;5072065;28;20028;-84
2021/04/16 14:52:43;;;;;;;4.82;2.03;;;9.00;85.60;;;;;;5073064;28;20044;-84
2021/04/16 14:55:31;;;;;;;3.65;2.53;;;9.00;86.30;;;;;;5075025;28;20100;-84
2021/04/16 14:57:59;;;;;;;4.10;2.35;;;9.00;86.70;;;;;;5073272;28;20070;-84
2021/04/16 15:03:47;;;;;;;2.92;2.10;;;9.10;86.40;;;;;;5067743;28;20445;-84
2021/04/16 15:06:25;;;;;;;3.30;1.73;;;9.00;86.10;;;;;;5072565;28;20020;-85
2021/04/16 15:09:06;;;;;;;3.50;2.25;;;9.00;85.50;;;;;;5073628;28;20109;-86
2021/04/16 15:11:41;;;;;;;4.45;2.15;;;8.90;85.30;;;;;;5071445;28;20051;-84
2021/04/16 15:14:12;;;;;;;6.13;3.10;;;8.90;85.50;;;;;;5070660;28;20489;-85
2021/04/16 15:16:44;;;;;;;5.30;3.08;;;8.90;86.30;;;;;;5071564;28;20394;-85
2021/04/16 15:19:16;;;;;;;3.42;2.70;;;8.90;86.10;;;;;;5072341;28;20491;-85
2021/04/16 15:21:43;;;;;;;4.25;2.17;;;8.90;85.90;;;;;;5072389;28;20020;-85
2021/04/16 15:24:09;;;;;;;2.70;1.95;;;8.90;86.20;;;;;;5072853;28;20075;-83
2021/04/16 15:26:35;;;;;;;2.92;2.45;;;8.90;85.90;;;;;;5072362;28;20078;-86
2021/04/16 15:29:08;;;;;;;4.07;2.80;;;8.90;86.10;;;;;;5072512;28;20020;-85
2021/04/16 15:31:40;;;;;;;4.13;1.90;;;8.90;86.40;;;;;;5072528;28;20436;-85
2021/04/16 15:45:50;;;;;;;4.30;2.10;;;8.60;85.50;;;;;;5069785;28;20035;-85
2021/04/16 15:48:22;;;;;;;3.88;2.50;;;8.50;85.40;;;;;;5071706;28;20116;-85
2021/04/16 15:50:53;;;;;;;2.67;2.20;;;8.40;85.90;;;;;;5073538;28;20025;-84